Time;durP1;ratioP1;P1;durP2;ratioP2;P2;SDS_P1;SDS_P2;PMS_P1;PMS_P2;Temp;Humidity;BMP_temperature;BMP_pressure;BME280_temperature;BME280_humidity;BME280_pressure;Samples;Min_cycle;Max_cycle;Signal;HPM_P1;HPM_P2
2024/02/28 00:02:15;;;;;;;7.38;1.70;;;11.70;96.70;;;;;;4980866;28;20100;-71
2024/02/28 00:04:45;;;;;;;5.43;1.85;;;11.70;96.70;;;;;;5006097;28;20140;-71
2024/02/28 00:07:15;;;;;;;4.03;1.30;;;11.70;96.70;;;;;;4983771;28;20065;-71
2024/02/28 00:09:43;;;;;;;6.20;1.65;;;11.70;96.70;;;;;;4981127;28;20060;-71
2024/02/28 00:12:15;;;;;;;5.75;1.35;;;11.70;96.70;;;;;;4974026;28;20053;-71
2024/02/28 00:14:45;;;;;;;2.47;1.02;;;11.70;96.70;;;;;;5003954;28;20054;-71
2024/02/28 00:17:15;;;;;;;4.20;1.23;;;11.70;96.70;;;;;;4986810;28;20048;-71
2024/02/28 00:19:44;;;;;;;4.72;1.02;;;11.70;96.70;;;;;;4997821;28;20414;-71
2024/02/28 00:22:14;;;;;;;4.35;1.02;;;11.70;96.70;;;;;;4973112;28;20055;-71
2024/02/28 00:24:42;;;;;;;9.27;1.65;;;11.70;96.70;;;;;;4989385;28;20046;-71
2024/02/28 00:27:10;;;;;;;6.45;1.00;;;11.70;96.70;;;;;;4978432;28;20058;-71
2024/02/28 00:29:40;;;;;;;6.03;1.60;;;11.70;96.70;;;;;;4984744;28;20050;-71
2024/02/28 00:32:10;;;;;;;8.15;1.63;;;11.60;96.70;;;;;;4991255;28;20050;-71
2024/02/28 00:34:40;;;;;;;7.88;1.20;;;11.60;96.70;;;;;;4983557;28;20046;-71
2024/02/28 00:37:09;;;;;;;5.15;1.60;;;11.60;96.70;;;;;;4983695;28;20073;-72
2024/02/28 00:39:41;;;;;;;13.30;1.80;;;11.70;96.70;;;;;;4979682;28;20078;-72
2024/02/28 00:42:10;;;;;;;11.73;1.63;;;11.70;96.70;;;;;;4953244;28;20062;-71
2024/02/28 00:44:42;;;;;;;6.70;1.70;;;11.70;96.70;;;;;;4970354;28;20105;-71
2024/02/28 00:47:12;;;;;;;5.43;1.23;;;11.70;96.70;;;;;;4966607;28;20907;-72
2024/02/28 00:49:41;;;;;;;10.60;2.10;;;11.70;96.70;;;;;;4950467;28;20114;-71
2024/02/28 00:52:10;;;;;;;6.70;1.20;;;11.70;96.70;;;;;;4982849;28;20133;-71
2024/02/28 00:54:39;;;;;;;13.25;3.17;;;11.70;96.70;;;;;;4953288;28;20072;-70
2024/02/28 00:57:07;;;;;;;9.88;1.40;;;11.70;96.70;;;;;;4957519;28;20054;-72
2024/02/28 00:59:42;;;;;;;8.20;2.00;;;11.70;96.70;;;;;;4942514;28;20058;-71
2024/02/28 01:02:12;;;;;;;7.88;1.70;;;11.70;96.70;;;;;;4948365;28;20713;-71
2024/02/28 01:04:43;;;;;;;8.43;1.27;;;11.70;96.70;;;;;;4980870;28;20097;-71
2024/02/28 01:07:11;;;;;;;11.60;1.58;;;11.70;96.70;;;;;;4955625;28;20104;-71
2024/02/28 01:09:40;;;;;;;11.65;1.58;;;11.70;96.70;;;;;;4969506;28;20515;-71
2024/02/28 01:12:11;;;;;;;10.20;2.15;;;11.60;96.70;;;;;;4961348;28;20104;-71
2024/02/28 01:14:42;;;;;;;11.90;1.65;;;11.70;96.70;;;;;;4945343;28;20109;-71
2024/02/28 01:17:13;;;;;;;11.25;1.95;;;11.70;96.70;;;;;;4978180;28;20649;-71
2024/02/28 01:19:44;;;;;;;12.27;1.58;;;11.70;96.70;;;;;;4965730;28;20051;-71
2024/02/28 01:22:13;;;;;;;9.65;1.70;;;11.70;96.70;;;;;;4964029;28;20420;-71
2024/02/28 01:24:41;;;;;;;10.95;1.88;;;11.70;96.70;;;;;;4962342;28;20113;-71
2024/02/28 01:27:13;;;;;;;7.72;1.55;;;11.70;96.70;;;;;;4969752;28;20142;-71
2024/02/28 01:29:43;;;;;;;6.88;1.48;;;11.70;96.70;;;;;;4961678;28;20145;-71
2024/02/28 01:32:14;;;;;;;7.70;1.25;;;11.70;96.70;;;;;;4976620;28;20046;-71
2024/02/28 01:34:45;;;;;;;10.32;1.90;;;11.70;96.70;;;;;;4970554;28;20121;-71
2024/02/28 01:37:13;;;;;;;10.05;1.52;;;11.70;96.70;;;;;;4958924;28;20061;-71
2024/02/28 01:39:43;;;;;;;6.18;1.58;;;11.70;96.70;;;;;;4962831;28;20058;-71
2024/02/28 01:42:14;;;;;;;9.20;1.85;;;11.70;96.70;;;;;;4996067;28;20042;-71
2024/02/28 01:44:46;;;;;;;9.55;2.03;;;11.70;96.70;;;;;;4989573;28;20092;-71
2024/02/28 01:47:17;;;;;;;5.05;1.20;;;11.60;96.70;;;;;;4971443;28;20141;-71
2024/02/28 01:49:47;;;;;;;12.75;1.88;;;11.60;96.70;;;;;;4991900;28;20057;-71
2024/02/28 01:52:15;;;;;;;11.43;1.80;;;11.60;96.70;;;;;;4989882;28;20131;-71
2024/02/28 01:54:45;;;;;;;8.00;2.05;;;11.60;96.70;;;;;;4981201;28;20046;-71
2024/02/28 01:57:14;;;;;;;13.70;2.15;;;11.60;96.70;;;;;;4988810;28;20535;-72
2024/02/28 01:59:45;;;;;;;7.85;1.52;;;11.60;96.70;;;;;;4971796;28;20446;-71
2024/02/28 02:02:15;;;;;;;12.32;1.67;;;11.60;96.70;;;;;;4980102;28;20050;-71
2024/02/28 02:04:45;;;;;;;9.77;1.90;;;11.60;96.70;;;;;;4977889;28;20055;-71
2024/02/28 02:07:13;;;;;;;9.35;2.35;;;11.60;96.70;;;;;;4996380;28;20149;-71
2024/02/28 02:09:41;;;;;;;7.53;1.60;;;11.60;96.70;;;;;;4971150;28;20161;-71
2024/02/28 02:12:14;;;;;;;10.45;1.85;;;11.60;96.70;;;;;;4998034;28;20069;-72
2024/02/28 02:14:46;;;;;;;13.63;2.20;;;11.60;96.70;;;;;;4982324;28;20046;-71
2024/02/28 02:17:20;;;;;;;9.25;1.70;;;11.60;96.70;;;;;;4992635;28;20042;-71
2024/02/28 02:19:48;;;;;;;9.48;1.67;;;11.60;96.70;;;;;;4994804;28;20069;-71
2024/02/28 02:22:20;;;;;;;14.73;1.80;;;11.60;96.70;;;;;;4980353;28;20058;-71
2024/02/28 02:24:52;;;;;;;11.27;1.90;;;11.60;96.70;;;;;;4990105;28;20052;-71
2024/02/28 02:27:21;;;;;;;9.52;1.55;;;11.70;96.70;;;;;;4968176;28;20043;-71
2024/02/28 02:29:52;;;;;;;8.73;1.60;;;11.70;96.70;;;;;;4971256;28;20058;-72
2024/02/28 02:32:21;;;;;;;9.40;1.98;;;11.70;96.70;;;;;;4979279;28;20674;-71
2024/02/28 02:34:49;;;;;;;8.68;2.10;;;11.70;96.70;;;;;;4978129;28;20112;-71
2024/02/28 02:37:19;;;;;;;9.60;1.60;;;11.70;96.70;;;;;;4969596;28;20046;-71
2024/02/28 02:39:47;;;;;;;9.23;1.35;;;11.70;96.70;;;;;;4968945;28;20063;-71
2024/02/28 02:42:20;;;;;;;7.35;1.10;;;11.70;96.70;;;;;;4978035;28;20508;-71
2024/02/28 02:44:49;;;;;;;6.60;1.90;;;11.70;96.70;;;;;;4979897;28;20051;-71
2024/02/28 02:47:19;;;;;;;10.55;2.28;;;11.70;96.70;;;;;;4966037;28;20042;-71
2024/02/28 02:49:48;;;;;;;8.77;1.48;;;11.70;96.70;;;;;;4987721;28;20065;-71
2024/02/28 02:52:20;;;;;;;8.05;1.73;;;11.70;96.70;;;;;;4973680;28;20162;-71
2024/02/28 02:54:50;;;;;;;8.57;1.48;;;11.70;96.70;;;;;;4987065;28;20050;-71
2024/02/28 02:57:21;;;;;;;6.22;1.50;;;11.80;96.70;;;;;;4984962;28;20050;-71
2024/02/28 02:59:51;;;;;;;8.05;1.58;;;11.70;96.70;;;;;;4968438;28;20050;-71
2024/02/28 03:02:21;;;;;;;8.13;2.13;;;11.80;96.70;;;;;;4964115;28;20050;-71
2024/02/28 03:04:49;;;;;;;9.48;2.13;;;11.70;96.70;;;;;;4960463;28;20046;-71
2024/02/28 03:07:20;;;;;;;7.72;1.75;;;11.70;96.70;;;;;;4984343;28;20104;-71
2024/02/28 03:09:48;;;;;;;7.60;1.75;;;11.70;96.70;;;;;;4968405;28;20051;-71
2024/02/28 03:12:21;;;;;;;10.10;1.70;;;11.70;96.70;;;;;;4971322;28;20042;-71
2024/02/28 03:14:49;;;;;;;6.90;1.90;;;11.70;96.70;;;;;;4973363;28;20062;-71
2024/02/28 03:17:22;;;;;;;9.30;1.50;;;11.70;96.70;;;;;;4969768;28;20042;-71
2024/02/28 03:19:53;;;;;;;8.05;2.05;;;11.70;96.70;;;;;;4979494;28;20754;-71
2024/02/28 03:22:23;;;;;;;10.70;1.92;;;11.70;96.70;;;;;;4985130;28;20073;-71
2024/02/28 03:24:52;;;;;;;6.65;2.15;;;11.70;96.70;;;;;;4989035;28;20085;-71
2024/02/28 03:27:22;;;;;;;10.00;2.25;;;11.70;96.70;;;;;;4984761;28;20108;-72
2024/02/28 03:29:53;;;;;;;14.38;2.70;;;11.70;96.70;;;;;;4963507;28;20117;-71
2024/02/28 03:32:22;;;;;;;7.28;2.20;;;11.70;96.70;;;;;;4985044;28;20147;-71
2024/02/28 03:34:50;;;;;;;11.55;2.50;;;11.70;96.70;;;;;;4982684;28;20061;-71
2024/02/28 03:37:18;;;;;;;8.85;2.00;;;11.70;96.70;;;;;;4978122;28;20129;-72
2024/02/28 03:39:47;;;;;;;9.65;2.22;;;11.70;96.70;;;;;;4974909;28;20465;-71
2024/02/28 03:42:16;;;;;;;7.85;1.85;;;11.70;96.70;;;;;;4969855;28;20124;-72
2024/02/28 03:44:48;;;;;;;6.97;1.58;;;11.60;96.70;;;;;;4968593;28;20054;-71
2024/02/28 03:47:19;;;;;;;9.15;2.15;;;11.60;96.70;;;;;;4985171;28;20051;-71
2024/02/28 03:49:48;;;;;;;8.43;1.98;;;11.60;96.70;;;;;;4967856;28;20050;-71
2024/02/28 03:52:17;;;;;;;9.10;2.53;;;11.60;96.70;;;;;;4983636;28;20128;-71
2024/02/28 03:54:46;;;;;;;8.00;2.22;;;11.60;96.70;;;;;;4996806;28;20054;-71
2024/02/28 03:57:15;;;;;;;9.55;1.85;;;11.60;96.70;;;;;;4973769;28;20130;-72
2024/02/28 03:59:44;;;;;;;10.52;2.38;;;11.60;96.70;;;;;;4991502;28;20058;-71
2024/02/28 04:02:18;;;;;;;10.05;2.13;;;11.60;96.70;;;;;;4988311;28;20136;-71
2024/02/28 04:04:48;;;;;;;5.63;1.52;;;11.60;96.70;;;;;;4976113;28;20050;-71
2024/02/28 04:07:18;;;;;;;11.48;1.77;;;11.60;96.70;;;;;;4961564;28;20708;-71
2024/02/28 04:09:47;;;;;;;7.60;1.83;;;11.60;96.70;;;;;;4970240;28;20507;-71
2024/02/28 04:12:18;;;;;;;10.07;1.65;;;11.60;96.70;;;;;;4976536;28;20050;-71
2024/02/28 04:14:47;;;;;;;9.05;2.30;;;11.60;96.70;;;;;;4980082;28;20065;-71
2024/02/28 04:17:19;;;;;;;8.98;1.60;;;11.60;96.70;;;;;;4978784;28;20042;-71
2024/02/28 04:19:51;;;;;;;8.20;1.20;;;11.60;96.70;;;;;;4992149;28;20449;-71
2024/02/28 04:22:21;;;;;;;5.80;1.33;;;11.60;96.70;;;;;;4967735;28;20185;-71
2024/02/28 04:24:51;;;;;;;6.57;1.73;;;11.60;96.70;;;;;;4961910;28;20475;-71
2024/02/28 04:27:21;;;;;;;8.90;1.83;;;11.60;96.70;;;;;;4975547;28;20045;-71
2024/02/28 04:29:50;;;;;;;9.32;1.90;;;11.60;96.70;;;;;;4986764;28;20054;-72
2024/02/28 04:32:21;;;;;;;10.48;2.13;;;11.60;96.70;;;;;;4981438;28;20078;-71
2024/02/28 04:34:51;;;;;;;8.38;1.27;;;11.70;96.70;;;;;;4970171;28;20759;-73
2024/02/28 04:37:22;;;;;;;7.25;1.80;;;11.60;96.70;;;;;;4975963;28;20057;-71
2024/02/28 04:39:51;;;;;;;6.55;1.48;;;11.60;96.70;;;;;;4978979;28;20054;-71
2024/02/28 04:42:21;;;;;;;6.88;1.70;;;11.60;96.70;;;;;;5015932;28;20144;-72
2024/02/28 04:44:54;;;;;;;6.90;1.60;;;11.60;96.70;;;;;;4970047;28;20057;-71
2024/02/28 04:47:23;;;;;;;6.18;1.63;;;11.60;96.70;;;;;;4976905;28;20043;-71
2024/02/28 04:50:06;;;;;;;8.05;1.75;;;11.60;96.70;;;;;;4987603;28;20074;-71
2024/02/28 04:52:36;;;;;;;8.20;2.00;;;11.60;96.70;;;;;;4975024;28;20073;-71
2024/02/28 04:55:06;;;;;;;7.57;1.95;;;11.60;96.70;;;;;;4968006;28;20051;-71
2024/02/28 04:57:35;;;;;;;6.32;2.40;;;11.60;96.70;;;;;;4977696;28;20775;-71
2024/02/28 05:00:07;;;;;;;8.75;2.00;;;11.60;96.70;;;;;;4989034;28;20419;-71
2024/02/28 05:02:38;;;;;;;9.02;2.13;;;11.60;96.70;;;;;;4962998;28;20183;-71
2024/02/28 05:05:09;;;;;;;9.00;3.83;;;11.60;96.70;;;;;;4978355;28;20062;-71
2024/02/28 05:07:38;;;;;;;6.43;3.33;;;11.60;96.70;;;;;;4963617;28;20054;-71
2024/02/28 05:10:10;;;;;;;7.22;2.40;;;11.60;96.70;;;;;;4976211;28;20047;-71
2024/02/28 05:12:39;;;;;;;8.35;1.88;;;11.60;96.70;;;;;;4984412;28;20428;-71
2024/02/28 05:15:09;;;;;;;11.52;2.17;;;11.60;96.70;;;;;;4988558;28;20056;-71
2024/02/28 05:17:40;;;;;;;9.20;2.28;;;11.60;96.70;;;;;;4987419;28;20078;-71
2024/02/28 05:20:10;;;;;;;7.97;1.73;;;11.60;96.70;;;;;;5006416;28;20108;-71
2024/02/28 05:22:42;;;;;;;8.70;2.75;;;11.50;96.70;;;;;;4979495;28;20059;-72
2024/02/28 05:25:11;;;;;;;9.93;1.90;;;11.60;96.70;;;;;;4994323;28;20821;-72
2024/02/28 05:27:42;;;;;;;10.15;1.75;;;11.50;96.70;;;;;;4977225;28;20049;-72
2024/02/28 05:30:12;;;;;;;7.35;1.65;;;11.60;96.70;;;;;;4978147;28;20141;-72
2024/02/28 05:32:43;;;;;;;7.15;1.73;;;11.50;96.70;;;;;;4984633;28;20113;-72
2024/02/28 05:35:11;;;;;;;7.68;1.95;;;11.50;96.70;;;;;;4995052;28;20073;-72
2024/02/28 05:37:40;;;;;;;7.03;2.03;;;11.50;96.70;;;;;;4986895;28;20567;-72
2024/02/28 05:40:10;;;;;;;8.48;1.85;;;11.50;96.70;;;;;;4977695;28;20069;-72
2024/02/28 05:42:39;;;;;;;9.82;2.35;;;11.50;96.70;;;;;;4968954;28;20515;-72
2024/02/28 05:45:08;;;;;;;6.90;1.80;;;11.50;96.70;;;;;;4975359;28;20050;-72
2024/02/28 05:47:37;;;;;;;11.18;2.22;;;11.50;96.70;;;;;;4979742;28;20869;-72
2024/02/28 05:50:10;;;;;;;10.27;2.30;;;11.50;96.70;;;;;;4965377;28;20066;-72
2024/02/28 05:52:41;;;;;;;10.43;1.98;;;11.50;96.70;;;;;;4986191;28;20050;-71
2024/02/28 05:55:10;;;;;;;6.60;1.42;;;11.50;96.70;;;;;;4988811;28;20108;-72
2024/02/28 05:57:40;;;;;;;5.70;1.60;;;11.50;96.70;;;;;;4994131;28;20096;-72
2024/02/28 06:00:11;;;;;;;9.20;1.98;;;11.50;96.70;;;;;;4971744;28;20057;-72
2024/02/28 06:02:41;;;;;;;9.15;1.92;;;11.50;96.70;;;;;;4977329;28;20144;-72
2024/02/28 06:05:11;;;;;;;8.68;1.60;;;11.50;96.70;;;;;;4988513;28;20042;-72
2024/02/28 06:07:41;;;;;;;9.77;1.38;;;11.40;96.70;;;;;;4982779;28;20054;-71
2024/02/28 06:10:10;;;;;;;4.60;1.50;;;11.50;96.70;;;;;;4977762;28;20046;-71
2024/02/28 06:12:39;;;;;;;8.88;2.58;;;11.50;96.70;;;;;;4981496;28;20045;-72
2024/02/28 06:15:10;;;;;;;7.82;2.50;;;11.50;96.70;;;;;;4974607;28;20503;-72
2024/02/28 06:17:39;;;;;;;5.25;2.17;;;11.50;96.70;;;;;;4996210;28;20061;-72
2024/02/28 06:20:11;;;;;;;6.93;2.28;;;11.50;96.70;;;;;;4984019;28;20051;-72
2024/02/28 06:22:41;;;;;;;8.00;2.67;;;11.50;96.70;;;;;;4977622;28;20073;-71
2024/02/28 06:25:18;;;;;;;11.60;2.55;;;11.50;96.70;;;;;;4983768;28;20053;-71
2024/02/28 06:27:46;;;;;;;7.88;2.60;;;11.50;96.70;;;;;;4984884;28;20050;-72
2024/02/28 06:30:16;;;;;;;11.88;2.60;;;11.50;96.70;;;;;;4970782;28;20046;-72
2024/02/28 06:32:47;;;;;;;8.07;2.15;;;11.50;96.70;;;;;;4981121;28;20177;-71
2024/02/28 06:35:19;;;;;;;9.98;2.60;;;11.50;96.70;;;;;;4992530;28;20120;-71
2024/02/28 06:37:49;;;;;;;7.00;1.95;;;11.50;96.70;;;;;;5006428;28;20068;-71
2024/02/28 06:40:20;;;;;;;7.38;2.83;;;11.50;96.70;;;;;;4989791;28;20062;-71
2024/02/28 06:42:49;;;;;;;8.90;2.40;;;11.50;96.70;;;;;;4979967;28;20050;-71
2024/02/28 06:45:18;;;;;;;10.55;2.33;;;11.50;96.70;;;;;;4987175;28;20046;-72
2024/02/28 06:47:48;;;;;;;5.60;2.15;;;11.50;96.70;;;;;;4998831;28;20077;-72
2024/02/28 06:50:20;;;;;;;8.23;2.20;;;11.50;96.70;;;;;;4963225;28;20134;-72
2024/02/28 06:52:53;;;;;;;4.68;2.03;;;11.60;96.70;;;;;;4989373;28;20037;-71
2024/02/28 06:55:21;;;;;;;8.63;2.28;;;11.60;96.70;;;;;;4978704;28;20054;-71
2024/02/28 06:57:50;;;;;;;8.60;2.15;;;11.60;96.70;;;;;;4971368;28;20057;-72
2024/02/28 07:00:21;;;;;;;9.55;2.10;;;11.60;96.70;;;;;;4966726;28;20063;-72
2024/02/28 07:02:50;;;;;;;9.25;1.92;;;11.60;96.70;;;;;;4969441;28;20054;-72
2024/02/28 07:05:22;;;;;;;6.78;1.63;;;11.60;96.70;;;;;;4987856;28;20182;-72
2024/02/28 07:07:50;;;;;;;8.48;2.28;;;11.70;96.70;;;;;;4986990;28;20058;-72
2024/02/28 07:10:20;;;;;;;8.23;1.90;;;11.70;96.70;;;;;;4971966;28;20062;-71
2024/02/28 07:12:48;;;;;;;5.50;1.73;;;11.70;96.70;;;;;;4971423;28;20132;-71
2024/02/28 07:15:19;;;;;;;8.63;2.13;;;11.80;96.70;;;;;;4993851;28;20148;-71
2024/02/28 07:17:47;;;;;;;6.18;2.05;;;11.80;96.70;;;;;;4978969;28;20058;-72
2024/02/28 07:20:15;;;;;;;8.45;2.70;;;11.80;96.70;;;;;;4968496;28;20050;-71
2024/02/28 07:22:47;;;;;;;5.47;2.13;;;11.80;96.70;;;;;;4963568;28;20078;-71
2024/02/28 07:25:16;;;;;;;8.25;2.15;;;11.80;96.70;;;;;;4992533;28;20058;-72
2024/02/28 07:27:49;;;;;;;10.93;3.35;;;11.80;96.70;;;;;;4990953;28;20454;-71
2024/02/28 07:30:18;;;;;;;7.65;4.28;;;11.80;96.70;;;;;;4993507;28;20053;-72
2024/02/28 07:32:46;;;;;;;11.60;3.67;;;11.90;96.70;;;;;;4979029;28;20120;-71
2024/02/28 07:35:20;;;;;;;11.15;2.72;;;11.90;96.70;;;;;;4989048;28;20643;-71
2024/02/28 07:37:50;;;;;;;7.82;2.35;;;11.90;96.70;;;;;;5001094;28;20069;-71
2024/02/28 07:40:18;;;;;;;8.30;2.65;;;12.00;96.70;;;;;;4972118;28;20058;-72
2024/02/28 07:42:46;;;;;;;9.00;2.85;;;12.00;96.70;;;;;;4979074;28;20901;-72
2024/02/28 07:45:16;;;;;;;10.48;2.30;;;12.00;96.70;;;;;;4988432;28;20058;-71
2024/02/28 07:47:45;;;;;;;5.10;1.98;;;12.00;96.70;;;;;;4990804;28;20388;-71
2024/02/28 07:50:15;;;;;;;9.73;2.40;;;12.00;96.70;;;;;;4995153;28;20105;-71
2024/02/28 07:52:45;;;;;;;5.40;2.10;;;12.00;96.70;;;;;;4994269;28;20097;-71
2024/02/28 07:55:16;;;;;;;7.97;2.53;;;12.10;96.70;;;;;;4970694;28;20054;-71
2024/02/28 07:57:44;;;;;;;7.40;2.70;;;12.10;96.70;;;;;;4976203;28;20669;-71
2024/02/28 08:00:18;;;;;;;11.77;3.10;;;12.10;96.70;;;;;;4976605;28;20133;-71
2024/02/28 08:02:47;;;;;;;6.47;2.13;;;12.10;96.70;;;;;;4966470;28;20057;-71
2024/02/28 08:05:17;;;;;;;10.93;2.30;;;12.10;96.70;;;;;;4965129;28;20124;-70
2024/02/28 08:07:47;;;;;;;10.60;2.67;;;12.10;96.70;;;;;;4987557;28;20092;-71
2024/02/28 08:10:18;;;;;;;10.27;2.40;;;12.20;96.70;;;;;;4979159;28;20049;-71
2024/02/28 08:12:48;;;;;;;5.72;1.92;;;12.20;96.70;;;;;;4976493;28;20054;-71
2024/02/28 08:15:16;;;;;;;8.18;2.42;;;12.20;96.70;;;;;;4991164;28;20467;-71
2024/02/28 08:17:45;;;;;;;9.43;2.30;;;12.30;96.70;;;;;;4983115;28;20105;-71
2024/02/28 08:20:14;;;;;;;6.32;1.85;;;12.30;96.70;;;;;;5004547;28;20054;-71
2024/02/28 08:22:42;;;;;;;7.22;1.90;;;12.40;96.70;;;;;;4983352;28;20066;-71
2024/02/28 08:25:11;;;;;;;10.07;2.63;;;12.40;96.70;;;;;;4992006;28;20057;-71
2024/02/28 08:27:42;;;;;;;9.80;4.18;;;12.40;96.70;;;;;;4984447;28;20085;-71
2024/02/28 08:30:11;;;;;;;10.30;2.30;;;12.40;96.70;;;;;;4987675;28;20050;-71
2024/02/28 08:32:40;;;;;;;8.00;2.80;;;12.50;96.70;;;;;;4982108;28;20050;-71
2024/02/28 08:35:10;;;;;;;7.22;2.20;;;12.60;96.70;;;;;;4981784;28;20078;-71
2024/02/28 08:37:40;;;;;;;9.68;2.08;;;12.70;96.70;;;;;;4983565;28;20415;-72
2024/02/28 08:40:12;;;;;;;7.82;1.92;;;12.70;96.70;;;;;;4992859;28;20050;-71
2024/02/28 08:42:43;;;;;;;7.03;1.98;;;12.70;96.70;;;;;;4965097;28;20468;-71
2024/02/28 08:45:12;;;;;;;8.40;1.90;;;12.70;96.70;;;;;;4973822;28;20064;-71
2024/02/28 08:47:41;;;;;;;7.05;1.80;;;12.80;96.70;;;;;;4990340;28;20049;-71
2024/02/28 08:50:12;;;;;;;5.57;1.85;;;12.80;96.70;;;;;;4984990;28;20536;-71
2024/02/28 08:52:43;;;;;;;7.18;1.73;;;12.80;96.70;;;;;;4993879;28;20058;-71
2024/02/28 08:55:12;;;;;;;6.60;1.80;;;12.80;96.70;;;;;;4985964;28;20052;-71
2024/02/28 08:57:42;;;;;;;6.50;1.63;;;12.80;96.70;;;;;;4974506;28;20506;-71
2024/02/28 09:00:13;;;;;;;6.50;2.30;;;12.90;96.70;;;;;;4991562;28;20050;-71
2024/02/28 09:02:42;;;;;;;6.25;2.25;;;12.90;96.70;;;;;;4992714;28;20058;-71
2024/02/28 09:05:12;;;;;;;12.20;3.28;;;13.00;96.70;;;;;;4977392;28;20085;-71
2024/02/28 09:07:40;;;;;;;14.68;3.13;;;13.10;96.70;;;;;;4980621;28;20514;-71
2024/02/28 09:10:11;;;;;;;7.38;2.20;;;13.10;96.70;;;;;;4973386;28;20053;-71
2024/02/28 09:12:42;;;;;;;12.73;4.05;;;13.20;96.70;;;;;;4991145;28;20054;-71
2024/02/28 09:15:12;;;;;;;13.50;4.45;;;13.30;96.70;;;;;;4980488;28;20153;-71
2024/02/28 09:17:42;;;;;;;13.27;4.53;;;13.40;96.70;;;;;;5002678;28;20084;-71
2024/02/28 09:20:12;;;;;;;12.75;4.00;;;13.50;96.70;;;;;;4999096;28;20548;-71
2024/02/28 09:22:42;;;;;;;17.38;4.78;;;13.60;96.70;;;;;;4982808;28;20530;-71
2024/02/28 09:25:12;;;;;;;19.35;6.88;;;13.80;96.70;;;;;;4998484;28;20058;-71
2024/02/28 09:27:44;;;;;;;15.48;4.38;;;13.90;96.70;;;;;;4986264;28;20521;-71
2024/02/28 09:30:15;;;;;;;10.02;3.45;;;14.00;96.70;;;;;;4976650;28;20145;-71
2024/02/28 09:32:45;;;;;;;9.57;3.38;;;14.00;96.70;;;;;;4968832;28;20539;-71
2024/02/28 09:35:13;;;;;;;11.52;3.70;;;14.20;96.70;;;;;;4988785;28;20047;-71
2024/02/28 09:37:42;;;;;;;8.45;2.70;;;14.30;96.70;;;;;;5007664;28;20050;-71
2024/02/28 09:40:11;;;;;;;11.07;2.83;;;14.40;96.70;;;;;;4971520;28;20054;-70
2024/02/28 09:42:42;;;;;;;7.20;2.03;;;14.50;96.70;;;;;;4988915;28;20054;-71
2024/02/28 09:45:15;;;;;;;9.00;2.38;;;14.60;96.70;;;;;;4999195;28;20051;-71
2024/02/28 09:47:45;;;;;;;7.32;2.10;;;14.70;96.70;;;;;;5007981;28;20626;-71
2024/02/28 09:50:14;;;;;;;13.43;3.08;;;14.80;96.70;;;;;;4982268;28;20721;-71
2024/02/28 09:52:43;;;;;;;9.18;2.50;;;14.90;96.70;;;;;;4978239;28;20475;-71
2024/02/28 09:55:18;;;;;;;10.30;2.15;;;15.00;96.70;;;;;;4988439;28;20471;-71
2024/02/28 09:57:51;;;;;;;9.02;2.28;;;15.00;96.70;;;;;;4969583;28;20150;-71
2024/02/28 10:00:21;;;;;;;8.07;2.75;;;15.10;96.70;;;;;;4972797;28;20045;-72
2024/02/28 10:02:51;;;;;;;6.93;2.35;;;15.20;96.70;;;;;;4988855;28;20051;-71
2024/02/28 10:05:21;;;;;;;8.75;2.90;;;15.30;96.70;;;;;;4991614;28;20064;-71
2024/02/28 10:07:50;;;;;;;6.97;2.10;;;15.30;96.70;;;;;;4979323;28;20578;-72
2024/02/28 10:10:18;;;;;;;6.80;2.30;;;15.20;96.70;;;;;;4979790;28;20515;-71
2024/02/28 10:12:50;;;;;;;5.60;1.23;;;15.20;96.70;;;;;;4982175;28;20038;-72
2024/02/28 10:15:21;;;;;;;6.45;1.63;;;15.20;96.70;;;;;;4991065;28;20081;-71
2024/02/28 10:17:51;;;;;;;4.47;1.30;;;15.20;96.70;;;;;;4977215;28;20560;-71
2024/02/28 10:20:21;;;;;;;3.92;1.08;;;15.30;96.70;;;;;;4991502;28;20042;-71
2024/02/28 10:22:53;;;;;;;7.07;1.73;;;15.30;96.70;;;;;;4996285;28;20050;-72
2024/02/28 10:25:22;;;;;;;5.88;1.23;;;15.40;96.70;;;;;;5002500;28;20069;-72
2024/02/28 10:27:52;;;;;;;4.53;1.40;;;15.40;96.70;;;;;;4977791;28;20054;-72
2024/02/28 10:30:21;;;;;;;9.13;1.75;;;15.40;96.70;;;;;;4969747;28;20102;-72
2024/02/28 10:32:50;;;;;;;4.28;1.30;;;15.30;96.70;;;;;;4979767;28;20054;-71
2024/02/28 10:35:25;;;;;;;5.50;1.30;;;15.40;96.70;;;;;;4977618;28;20062;-72
2024/02/28 10:37:54;;;;;;;5.00;1.35;;;15.40;96.70;;;;;;4971396;28;20467;-71
2024/02/28 10:40:23;;;;;;;7.85;1.88;;;15.40;96.70;;;;;;4992737;28;20049;-72
2024/02/28 10:42:57;;;;;;;7.13;1.48;;;15.40;96.70;;;;;;4974796;28;20507;-72
2024/02/28 10:45:31;;;;;;;5.43;1.35;;;15.40;96.70;;;;;;4996233;28;20053;-71
2024/02/28 10:48:26;;;;;;;9.27;1.90;;;15.40;96.70;;;;;;4987174;28;20070;-72
2024/02/28 10:50:55;;;;;;;9.23;1.70;;;15.50;96.70;;;;;;4973510;28;20042;-71
2024/02/28 10:53:32;;;;;;;7.70;1.58;;;15.50;96.70;;;;;;4980237;28;20518;-72
2024/02/28 10:56:04;;;;;;;6.65;1.35;;;15.60;96.70;;;;;;4989924;28;20057;-72
2024/02/28 10:58:37;;;;;;;7.63;1.63;;;15.70;96.70;;;;;;4971277;28;20059;-71
2024/02/28 11:01:06;;;;;;;7.13;1.58;;;15.80;96.70;;;;;;4978684;28;20140;-71
2024/02/28 11:03:36;;;;;;;6.38;1.60;;;15.90;96.70;;;;;;4991141;28;20459;-71
2024/02/28 11:06:17;;;;;;;6.05;1.63;;;16.10;96.70;;;;;;4972192;28;20069;-72
2024/02/28 11:08:48;;;;;;;8.05;1.85;;;16.30;96.70;;;;;;4982627;28;20077;-72
2024/02/28 11:11:22;;;;;;;6.93;1.80;;;16.40;96.70;;;;;;4981658;28;20057;-72
2024/02/28 11:13:54;;;;;;;9.27;1.40;;;16.60;96.70;;;;;;4980355;28;20078;-72
2024/02/28 11:16:30;;;;;;;7.53;1.52;;;16.90;96.70;;;;;;4977716;28;20082;-71
2024/02/28 11:19:02;;;;;;;5.45;1.63;;;17.20;96.70;;;;;;4976058;28;20052;-71
2024/02/28 11:21:35;;;;;;;8.57;1.70;;;17.20;96.70;;;;;;4974016;28;20415;-72
2024/02/28 11:24:08;;;;;;;9.63;1.77;;;17.30;96.70;;;;;;4980109;28;20507;-71
2024/02/28 11:26:38;;;;;;;7.82;1.83;;;17.40;96.70;;;;;;4981422;28;20076;-71
2024/02/28 11:29:10;;;;;;;7.78;2.03;;;17.40;96.70;;;;;;4989308;28;20800;-72
2024/02/28 11:31:39;;;;;;;11.13;2.10;;;17.40;96.70;;;;;;4988836;28;20100;-71
2024/02/28 11:34:09;;;;;;;9.38;2.08;;;17.50;96.70;;;;;;4971924;28;20042;-71
2024/02/28 11:36:38;;;;;;;13.20;2.55;;;17.50;96.70;;;;;;4996154;28;20459;-72
2024/02/28 11:39:08;;;;;;;9.20;2.17;;;17.60;96.70;;;;;;4972614;28;20060;-71
2024/02/28 11:41:39;;;;;;;8.15;2.10;;;17.70;96.70;;;;;;4985639;28;20091;-72
2024/02/28 11:44:12;;;;;;;9.98;2.17;;;17.60;96.70;;;;;;4970485;28;20138;-70
2024/02/28 11:46:45;;;;;;;10.82;1.80;;;17.50;96.70;;;;;;4984449;28;20089;-71
2024/02/28 11:49:15;;;;;;;8.48;1.70;;;17.50;96.70;;;;;;4980199;28;20058;-71
2024/02/28 11:51:46;;;;;;;10.55;1.75;;;17.50;96.70;;;;;;4986105;28;20140;-72
2024/02/28 11:54:15;;;;;;;7.07;1.77;;;17.70;96.70;;;;;;4994903;28;20061;-72
2024/02/28 11:56:46;;;;;;;10.27;1.67;;;17.70;96.70;;;;;;5006976;28;20069;-72
2024/02/28 11:59:16;;;;;;;10.60;2.13;;;17.80;96.70;;;;;;4991289;28;20052;-72
2024/02/28 12:01:47;;;;;;;10.40;2.08;;;17.80;96.70;;;;;;4976430;28;20053;-72
2024/02/28 12:04:19;;;;;;;10.75;2.70;;;17.90;96.70;;;;;;4981958;28;20062;-72
2024/02/28 12:06:49;;;;;;;11.38;2.30;;;17.90;96.70;;;;;;4989752;28;20077;-72
2024/02/28 12:09:18;;;;;;;11.75;2.47;;;18.00;96.70;;;;;;4976035;28;20152;-72
2024/02/28 12:12:01;;;;;;;16.05;2.83;;;17.90;96.70;;;;;;4985435;28;20414;-73
2024/02/28 12:14:35;;;;;;;11.93;2.30;;;17.90;96.70;;;;;;4989783;28;20381;-72
2024/02/28 12:17:04;;;;;;;15.30;2.10;;;18.00;96.70;;;;;;4973727;28;20058;-73
2024/02/28 12:19:35;;;;;;;8.00;1.98;;;18.10;96.70;;;;;;4990708;28;20042;-73
2024/02/28 12:22:05;;;;;;;11.68;2.42;;;18.20;96.70;;;;;;4981940;28;20057;-72
2024/02/28 12:24:35;;;;;;;13.07;2.78;;;18.20;96.70;;;;;;5000229;28;20101;-73
2024/02/28 12:27:04;;;;;;;7.70;2.30;;;18.20;96.70;;;;;;4974065;28;20090;-73
2024/02/28 12:29:35;;;;;;;9.50;1.85;;;18.20;96.70;;;;;;4970905;28;20085;-73
2024/02/28 12:32:07;;;;;;;8.32;2.08;;;18.10;96.70;;;;;;4999059;28;20057;-72
2024/02/28 12:34:36;;;;;;;7.00;1.95;;;18.10;96.70;;;;;;4997332;28;20054;-73
2024/02/28 12:37:06;;;;;;;12.02;2.22;;;18.00;96.70;;;;;;4995121;28;20404;-73
2024/02/28 12:39:36;;;;;;;10.07;1.80;;;18.00;96.70;;;;;;4989772;28;20058;-73
2024/02/28 12:42:08;;;;;;;8.18;1.88;;;17.90;96.70;;;;;;4989993;28;20053;-72
2024/02/28 12:44:40;;;;;;;12.77;2.20;;;18.00;96.70;;;;;;4987907;28;20443;-72
2024/02/28 12:47:09;;;;;;;13.52;2.50;;;17.90;96.70;;;;;;4996738;28;20054;-72
2024/02/28 12:49:38;;;;;;;10.73;2.03;;;17.90;96.70;;;;;;4987086;28;20514;-72
2024/02/28 12:52:07;;;;;;;8.18;1.98;;;17.90;96.70;;;;;;4976827;28;20055;-71
2024/02/28 12:54:37;;;;;;;9.57;1.95;;;17.90;96.70;;;;;;4978498;28;20042;-71
2024/02/28 12:57:06;;;;;;;10.13;2.20;;;17.90;96.70;;;;;;4998973;28;20526;-72
2024/02/28 12:59:35;;;;;;;7.50;1.75;;;18.00;96.70;;;;;;4976369;28;20195;-72